sensor_id;sensor_type;location;lat;lon;timestamp;temperature;humidity
42841;DHT22;28491;46.898;7.660;2023-04-25T00:01:14;9.00;1.00
42841;DHT22;28491;46.898;7.660;2023-04-25T00:03:40;8.90;1.00
42841;DHT22;28491;46.898;7.660;2023-04-25T00:06:06;8.90;1.00
42841;DHT22;28491;46.898;7.660;2023-04-25T00:08:32;9.00;1.00
42841;DHT22;28491;46.898;7.660;2023-04-25T00:10:58;8.90;1.00
42841;DHT22;28491;46.898;7.660;2023-04-25T00:13:23;9.00;1.00
42841;DHT22;28491;46.898;7.660;2023-04-25T00:15:51;9.00;1.00
42841;DHT22;28491;46.898;7.660;2023-04-25T00:18:16;8.90;1.00
42841;DHT22;28491;46.898;7.660;2023-04-25T00:20:43;8.90;1.00
42841;DHT22;28491;46.898;7.660;2023-04-25T00:23:12;8.90;1.00
42841;DHT22;28491;46.898;7.660;2023-04-25T00:25:38;8.80;1.00
42841;DHT22;28491;46.898;7.660;2023-04-25T00:28:03;8.70;1.00
42841;DHT22;28491;46.898;7.660;2023-04-25T00:30:29;8.70;1.00
42841;DHT22;28491;46.898;7.660;2023-04-25T00:32:54;8.60;1.00
42841;DHT22;28491;46.898;7.660;2023-04-25T00:35:20;8.50;1.00
42841;DHT22;28491;46.898;7.660;2023-04-25T00:37:46;8.50;1.00
42841;DHT22;28491;46.898;7.660;2023-04-25T00:40:12;8.50;1.00
42841;DHT22;28491;46.898;7.660;2023-04-25T00:42:37;8.50;1.00
42841;DHT22;28491;46.898;7.660;2023-04-25T00:45:05;8.50;1.00
42841;DHT22;28491;46.898;7.660;2023-04-25T00:47:32;8.50;1.00
42841;DHT22;28491;46.898;7.660;2023-04-25T00:49:58;8.50;1.00
42841;DHT22;28491;46.898;7.660;2023-04-25T00:52:23;8.50;1.00
42841;DHT22;28491;46.898;7.660;2023-04-25T00:54:49;8.40;1.00
42841;DHT22;28491;46.898;7.660;2023-04-25T00:57:15;8.40;1.00
42841;DHT22;28491;46.898;7.660;2023-04-25T00:59:45;8.30;1.00
42841;DHT22;28491;46.898;7.660;2023-04-25T01:02:12;8.30;1.00
42841;DHT22;28491;46.898;7.660;2023-04-25T01:04:38;8.20;1.00
42841;DHT22;28491;46.898;7.660;2023-04-25T01:07:04;8.20;1.00
42841;DHT22;28491;46.898;7.660;2023-04-25T01:09:30;8.20;1.00
42841;DHT22;28491;46.898;7.660;2023-04-25T01:11:57;8.20;1.00
42841;DHT22;28491;46.898;7.660;2023-04-25T01:14:23;8.20;1.00
42841;DHT22;28491;46.898;7.660;2023-04-25T01:16:48;8.20;1.00
42841;DHT22;28491;46.898;7.660;2023-04-25T01:19:16;8.20;1.00
42841;DHT22;28491;46.898;7.660;2023-04-25T01:21:43;8.20;1.00
42841;DHT22;28491;46.898;7.660;2023-04-25T01:24:09;8.20;1.00
42841;DHT22;28491;46.898;7.660;2023-04-25T01:26:36;8.10;1.00
42841;DHT22;28491;46.898;7.660;2023-04-25T01:29:03;8.10;1.00
42841;DHT22;28491;46.898;7.660;2023-04-25T01:31:29;8.10;1.00
42841;DHT22;28491;46.898;7.660;2023-04-25T01:33:55;8.00;1.00
42841;DHT22;28491;46.898;7.660;2023-04-25T01:36:21;8.00;1.00
42841;DHT22;28491;46.898;7.660;2023-04-25T01:38:47;8.00;1.00
42841;DHT22;28491;46.898;7.660;2023-04-25T01:41:14;8.00;1.00
42841;DHT22;28491;46.898;7.660;2023-04-25T01:43:40;8.00;1.00
42841;DHT22;28491;46.898;7.660;2023-04-25T01:46:06;8.00;1.00
42841;DHT22;28491;46.898;7.660;2023-04-25T01:48:31;8.00;1.00
42841;DHT22;28491;46.898;7.660;2023-04-25T01:50:57;8.00;1.00
42841;DHT22;28491;46.898;7.660;2023-04-25T01:53:23;8.00;1.00
42841;DHT22;28491;46.898;7.660;2023-04-25T01:55:49;8.00;3.90
42841;DHT22;28491;46.898;7.660;2023-04-25T01:58:15;8.00;9.10
42841;DHT22;28491;46.898;7.660;2023-04-25T02:00:40;8.00;1.00
42841;DHT22;28491;46.898;7.660;2023-04-25T02:03:06;7.90;20.50
42841;DHT22;28491;46.898;7.660;2023-04-25T02:05:35;7.80;19.70
42841;DHT22;28491;46.898;7.660;2023-04-25T02:08:02;7.90;26.30
42841;DHT22;28491;46.898;7.660;2023-04-25T02:10:28;7.90;8.60
42841;DHT22;28491;46.898;7.660;2023-04-25T02:12:53;7.90;1.00
42841;DHT22;28491;46.898;7.660;2023-04-25T02:15:19;7.90;2.50
42841;DHT22;28491;46.898;7.660;2023-04-25T02:17:44;8.00;6.60
42841;DHT22;28491;46.898;7.660;2023-04-25T02:20:11;8.00;9.90
42841;DHT22;28491;46.898;7.660;2023-04-25T02:22:36;7.90;4.60
42841;DHT22;28491;46.898;7.660;2023-04-25T02:25:02;8.00;8.50
42841;DHT22;28491;46.898;7.660;2023-04-25T02:27:30;8.00;8.60
42841;DHT22;28491;46.898;7.660;2023-04-25T02:29:55;7.90;12.00
42841;DHT22;28491;46.898;7.660;2023-04-25T02:32:21;7.90;11.80
42841;DHT22;28491;46.898;7.660;2023-04-25T02:34:46;7.80;1.60
42841;DHT22;28491;46.898;7.660;2023-04-25T02:37:13;7.90;6.70
42841;DHT22;28491;46.898;7.660;2023-04-25T02:39:38;8.00;1.00
42841;DHT22;28491;46.898;7.660;2023-04-25T02:42:04;8.00;1.00
42841;DHT22;28491;46.898;7.660;2023-04-25T02:44:30;8.00;1.00
42841;DHT22;28491;46.898;7.660;2023-04-25T02:46:55;8.00;1.00
42841;DHT22;28491;46.898;7.660;2023-04-25T02:49:20;7.90;1.00
42841;DHT22;28491;46.898;7.660;2023-04-25T02:51:46;7.80;1.00
42841;DHT22;28491;46.898;7.660;2023-04-25T02:54:11;7.80;1.00
42841;DHT22;28491;46.898;7.660;2023-04-25T02:56:37;7.70;1.00
42841;DHT22;28491;46.898;7.660;2023-04-25T02:59:03;7.70;1.00
42841;DHT22;28491;46.898;7.660;2023-04-25T03:01:28;7.70;1.00
42841;DHT22;28491;46.898;7.660;2023-04-25T03:03:53;7.70;1.00
42841;DHT22;28491;46.898;7.660;2023-04-25T03:06:19;7.50;1.00
42841;DHT22;28491;46.898;7.660;2023-04-25T03:08:45;7.40;1.00
42841;DHT22;28491;46.898;7.660;2023-04-25T03:11:10;7.30;1.90
42841;DHT22;28491;46.898;7.660;2023-04-25T03:13:36;7.20;14.10
42841;DHT22;28491;46.898;7.660;2023-04-25T03:16:01;7.20;1.00
42841;DHT22;28491;46.898;7.660;2023-04-25T03:18:27;7.20;1.00
42841;DHT22;28491;46.898;7.660;2023-04-25T03:20:52;7.20;9.20
42841;DHT22;28491;46.898;7.660;2023-04-25T03:23:18;7.10;20.00
42841;DHT22;28491;46.898;7.660;2023-04-25T03:25:43;7.00;25.80
42841;DHT22;28491;46.898;7.660;2023-04-25T03:28:09;7.00;23.90
42841;DHT22;28491;46.898;7.660;2023-04-25T03:30:34;7.00;10.50
42841;DHT22;28491;46.898;7.660;2023-04-25T03:33:00;7.10;6.50
42841;DHT22;28491;46.898;7.660;2023-04-25T03:35:25;7.00;1.00
42841;DHT22;28491;46.898;7.660;2023-04-25T03:37:51;7.00;1.00
42841;DHT22;28491;46.898;7.660;2023-04-25T03:40:16;7.00;3.50
42841;DHT22;28491;46.898;7.660;2023-04-25T03:42:42;7.00;1.00
42841;DHT22;28491;46.898;7.660;2023-04-25T03:45:08;7.00;1.70
42841;DHT22;28491;46.898;7.660;2023-04-25T03:47:33;7.00;3.10
42841;DHT22;28491;46.898;7.660;2023-04-25T03:49:59;6.80;4.60
42841;DHT22;28491;46.898;7.660;2023-04-25T03:52:26;6.60;18.90
42841;DHT22;28491;46.898;7.660;2023-04-25T03:54:52;6.60;25.90
42841;DHT22;28491;46.898;7.660;2023-04-25T03:57:18;6.50;40.60
42841;DHT22;28491;46.898;7.660;2023-04-25T03:59:43;6.30;34.10
42841;DHT22;28491;46.898;7.660;2023-04-25T04:02:09;6.20;43.10
42841;DHT22;28491;46.898;7.660;2023-04-25T04:04:35;6.10;50.10
42841;DHT22;28491;46.898;7.660;2023-04-25T04:07:00;6.00;60.20
42841;DHT22;28491;46.898;7.660;2023-04-25T04:09:26;6.00;61.40
42841;DHT22;28491;46.898;7.660;2023-04-25T04:11:52;6.10;61.20
42841;DHT22;28491;46.898;7.660;2023-04-25T04:14:18;6.10;61.20
42841;DHT22;28491;46.898;7.660;2023-04-25T04:16:44;6.00;51.80
42841;DHT22;28491;46.898;7.660;2023-04-25T04:19:10;6.10;47.90
42841;DHT22;28491;46.898;7.660;2023-04-25T04:21:35;6.00;46.80
42841;DHT22;28491;46.898;7.660;2023-04-25T04:24:01;5.90;46.60
42841;DHT22;28491;46.898;7.660;2023-04-25T04:26:27;6.10;48.70
42841;DHT22;28491;46.898;7.660;2023-04-25T04:28:52;6.00;46.40
42841;DHT22;28491;46.898;7.660;2023-04-25T04:31:20;6.00;39.20
42841;DHT22;28491;46.898;7.660;2023-04-25T04:33:46;6.00;40.00
42841;DHT22;28491;46.898;7.660;2023-04-25T04:36:12;5.90;43.10
42841;DHT22;28491;46.898;7.660;2023-04-25T04:38:38;6.00;39.50
42841;DHT22;28491;46.898;7.660;2023-04-25T04:41:04;5.90;39.10
42841;DHT22;28491;46.898;7.660;2023-04-25T04:43:29;5.90;40.40
42841;DHT22;28491;46.898;7.660;2023-04-25T04:45:55;5.90;41.80
42841;DHT22;28491;46.898;7.660;2023-04-25T04:48:24;6.00;35.70
42841;DHT22;28491;46.898;7.660;2023-04-25T04:50:49;6.00;35.10
42841;DHT22;28491;46.898;7.660;2023-04-25T04:53:15;6.00;37.80
42841;DHT22;28491;46.898;7.660;2023-04-25T04:55:41;5.90;38.80
42841;DHT22;28491;46.898;7.660;2023-04-25T04:58:07;5.90;37.50
42841;DHT22;28491;46.898;7.660;2023-04-25T05:00:32;5.80;38.80
42841;DHT22;28491;46.898;7.660;2023-04-25T05:02:58;6.00;40.70
42841;DHT22;28491;46.898;7.660;2023-04-25T05:05:24;6.00;39.20
42841;DHT22;28491;46.898;7.660;2023-04-25T05:07:50;6.00;38.80
42841;DHT22;28491;46.898;7.660;2023-04-25T05:10:17;6.10;41.80
42841;DHT22;28491;46.898;7.660;2023-04-25T05:12:42;6.00;39.70
42841;DHT22;28491;46.898;7.660;2023-04-25T05:15:08;6.00;47.90
42841;DHT22;28491;46.898;7.660;2023-04-25T05:17:34;6.00;57.20
42841;DHT22;28491;46.898;7.660;2023-04-25T05:19:59;6.00;53.00
42841;DHT22;28491;46.898;7.660;2023-04-25T05:22:25;5.90;52.40
42841;DHT22;28491;46.898;7.660;2023-04-25T05:24:51;5.90;61.70
42841;DHT22;28491;46.898;7.660;2023-04-25T05:27:17;5.90;60.40
42841;DHT22;28491;46.898;7.660;2023-04-25T05:29:43;5.90;59.90
42841;DHT22;28491;46.898;7.660;2023-04-25T05:32:09;6.00;60.50
42841;DHT22;28491;46.898;7.660;2023-04-25T05:34:34;6.00;60.90
42841;DHT22;28491;46.898;7.660;2023-04-25T05:37:00;6.00;60.10
42841;DHT22;28491;46.898;7.660;2023-04-25T05:39:26;6.10;63.20
42841;DHT22;28491;46.898;7.660;2023-04-25T05:41:52;6.20;63.00
42841;DHT22;28491;46.898;7.660;2023-04-25T05:44:17;6.20;65.10
42841;DHT22;28491;46.898;7.660;2023-04-25T05:46:43;6.30;65.60
42841;DHT22;28491;46.898;7.660;2023-04-25T05:49:09;6.40;65.00
42841;DHT22;28491;46.898;7.660;2023-04-25T05:51:34;6.30;64.90
42841;DHT22;28491;46.898;7.660;2023-04-25T05:54:00;6.30;65.20
42841;DHT22;28491;46.898;7.660;2023-04-25T05:56:25;6.20;65.70
42841;DHT22;28491;46.898;7.660;2023-04-25T05:58:51;6.20;66.30
42841;DHT22;28491;46.898;7.660;2023-04-25T06:01:16;6.20;67.70
42841;DHT22;28491;46.898;7.660;2023-04-25T06:03:42;6.10;69.10
42841;DHT22;28491;46.898;7.660;2023-04-25T06:06:08;6.10;72.50
42841;DHT22;28491;46.898;7.660;2023-04-25T06:08:34;6.00;70.30
42841;DHT22;28491;46.898;7.660;2023-04-25T06:11:00;5.90;70.60
42841;DHT22;28491;46.898;7.660;2023-04-25T06:13:26;5.90;74.70
42841;DHT22;28491;46.898;7.660;2023-04-25T06:15:51;5.90;75.00
42841;DHT22;28491;46.898;7.660;2023-04-25T06:18:17;6.00;78.80
42841;DHT22;28491;46.898;7.660;2023-04-25T06:20:42;6.10;78.90
42841;DHT22;28491;46.898;7.660;2023-04-25T06:23:08;6.20;76.70
42841;DHT22;28491;46.898;7.660;2023-04-25T06:25:33;6.30;76.40
42841;DHT22;28491;46.898;7.660;2023-04-25T06:27:59;6.20;75.30
42841;DHT22;28491;46.898;7.660;2023-04-25T06:30:25;6.20;77.80
42841;DHT22;28491;46.898;7.660;2023-04-25T06:32:54;6.20;78.20
42841;DHT22;28491;46.898;7.660;2023-04-25T06:35:19;6.20;80.10
42841;DHT22;28491;46.898;7.660;2023-04-25T06:37:45;6.20;79.60
42841;DHT22;28491;46.898;7.660;2023-04-25T06:40:11;6.20;72.10
42841;DHT22;28491;46.898;7.660;2023-04-25T06:42:36;6.20;71.90
42841;DHT22;28491;46.898;7.660;2023-04-25T06:45:02;6.20;75.00
42841;DHT22;28491;46.898;7.660;2023-04-25T06:47:28;6.20;79.40
42841;DHT22;28491;46.898;7.660;2023-04-25T06:49:55;6.10;76.30
42841;DHT22;28491;46.898;7.660;2023-04-25T06:52:20;6.10;78.60
42841;DHT22;28491;46.898;7.660;2023-04-25T06:54:46;6.20;83.90
42841;DHT22;28491;46.898;7.660;2023-04-25T06:57:12;6.20;83.70
42841;DHT22;28491;46.898;7.660;2023-04-25T06:59:37;6.20;81.60
42841;DHT22;28491;46.898;7.660;2023-04-25T07:02:03;6.30;81.30
42841;DHT22;28491;46.898;7.660;2023-04-25T07:04:29;6.30;78.70
42841;DHT22;28491;46.898;7.660;2023-04-25T07:06:55;6.40;77.90
42841;DHT22;28491;46.898;7.660;2023-04-25T07:09:21;6.50;76.90
42841;DHT22;28491;46.898;7.660;2023-04-25T07:11:47;6.70;77.40
42841;DHT22;28491;46.898;7.660;2023-04-25T07:14:12;6.80;78.20
42841;DHT22;28491;46.898;7.660;2023-04-25T07:16:38;6.90;74.30
42841;DHT22;28491;46.898;7.660;2023-04-25T07:19:03;6.90;72.60
42841;DHT22;28491;46.898;7.660;2023-04-25T07:21:29;7.30;72.20
42841;DHT22;28491;46.898;7.660;2023-04-25T07:23:56;7.30;67.20
42841;DHT22;28491;46.898;7.660;2023-04-25T07:26:22;7.30;63.70
42841;DHT22;28491;46.898;7.660;2023-04-25T07:28:47;7.20;65.70
42841;DHT22;28491;46.898;7.660;2023-04-25T07:31:16;7.30;69.20
42841;DHT22;28491;46.898;7.660;2023-04-25T07:33:46;8.00;64.40
42841;DHT22;28491;46.898;7.660;2023-04-25T07:36:12;8.40;60.70
42841;DHT22;28491;46.898;7.660;2023-04-25T07:38:38;9.50;23.60
42841;DHT22;28491;46.898;7.660;2023-04-25T07:41:04;10.50;1.00
42841;DHT22;28491;46.898;7.660;2023-04-25T07:43:29;10.60;1.00
42841;DHT22;28491;46.898;7.660;2023-04-25T07:45:56;10.00;1.00
42841;DHT22;28491;46.898;7.660;2023-04-25T07:48:22;9.70;2.90
42841;DHT22;28491;46.898;7.660;2023-04-25T07:50:48;9.50;16.80
42841;DHT22;28491;46.898;7.660;2023-04-25T07:53:14;9.30;26.50
42841;DHT22;28491;46.898;7.660;2023-04-25T07:55:39;8.80;10.20
42841;DHT22;28491;46.898;7.660;2023-04-25T07:58:08;8.20;17.30
42841;DHT22;28491;46.898;7.660;2023-04-25T08:00:35;7.70;32.90
42841;DHT22;28491;46.898;7.660;2023-04-25T08:03:00;7.50;55.00
42841;DHT22;28491;46.898;7.660;2023-04-25T08:05:26;7.50;62.70
42841;DHT22;28491;46.898;7.660;2023-04-25T08:07:51;7.50;60.90
42841;DHT22;28491;46.898;7.660;2023-04-25T08:10:17;7.30;56.30
42841;DHT22;28491;46.898;7.660;2023-04-25T08:12:42;7.10;60.50
42841;DHT22;28491;46.898;7.660;2023-04-25T08:15:08;7.00;61.30
42841;DHT22;28491;46.898;7.660;2023-04-25T08:17:34;6.80;61.10
42841;DHT22;28491;46.898;7.660;2023-04-25T08:20:00;6.80;61.30
42841;DHT22;28491;46.898;7.660;2023-04-25T08:22:25;6.80;63.70
42841;DHT22;28491;46.898;7.660;2023-04-25T08:24:51;6.90;66.20
42841;DHT22;28491;46.898;7.660;2023-04-25T08:27:18;6.90;63.70
42841;DHT22;28491;46.898;7.660;2023-04-25T08:29:43;6.90;61.00
42841;DHT22;28491;46.898;7.660;2023-04-25T08:32:09;7.20;64.60
42841;DHT22;28491;46.898;7.660;2023-04-25T08:34:34;7.30;63.60
42841;DHT22;28491;46.898;7.660;2023-04-25T08:37:02;7.30;51.80
42841;DHT22;28491;46.898;7.660;2023-04-25T08:39:29;7.20;52.60
42841;DHT22;28491;46.898;7.660;2023-04-25T08:41:55;7.30;61.60
42841;DHT22;28491;46.898;7.660;2023-04-25T08:44:22;7.30;60.50
42841;DHT22;28491;46.898;7.660;2023-04-25T08:46:49;7.30;34.10
42841;DHT22;28491;46.898;7.660;2023-04-25T08:49:17;7.30;49.50
42841;DHT22;28491;46.898;7.660;2023-04-25T08:51:46;7.30;36.60
42841;DHT22;28491;46.898;7.660;2023-04-25T08:54:13;7.10;25.00
42841;DHT22;28491;46.898;7.660;2023-04-25T08:56:47;7.20;60.00
42841;DHT22;28491;46.898;7.660;2023-04-25T08:59:13;7.20;42.40
42841;DHT22;28491;46.898;7.660;2023-04-25T09:01:38;7.20;40.40
42841;DHT22;28491;46.898;7.660;2023-04-25T09:04:04;7.20;17.70
42841;DHT22;28491;46.898;7.660;2023-04-25T09:06:30;7.30;35.00
42841;DHT22;28491;46.898;7.660;2023-04-25T09:09:02;7.50;29.60
42841;DHT22;28491;46.898;7.660;2023-04-25T09:11:29;7.70;23.50
42841;DHT22;28491;46.898;7.660;2023-04-25T09:14:20;7.70;30.40
42841;DHT22;28491;46.898;7.660;2023-04-25T09:19:29;7.60;29.10
42841;DHT22;28491;46.898;7.660;2023-04-25T09:21:56;7.50;24.80
42841;DHT22;28491;46.898;7.660;2023-04-25T09:24:44;7.50;42.60
42841;DHT22;28491;46.898;7.660;2023-04-25T09:27:13;7.60;28.50
42841;DHT22;28491;46.898;7.660;2023-04-25T09:29:43;7.50;48.20
42841;DHT22;28491;46.898;7.660;2023-04-25T09:32:22;7.50;47.40
42841;DHT22;28491;46.898;7.660;2023-04-25T09:34:55;7.40;53.50
42841;DHT22;28491;46.898;7.660;2023-04-25T09:37:30;7.20;62.40
42841;DHT22;28491;46.898;7.660;2023-04-25T09:40:00;7.00;68.30
42841;DHT22;28491;46.898;7.660;2023-04-25T09:42:29;6.90;72.00
42841;DHT22;28491;46.898;7.660;2023-04-25T09:44:57;6.80;71.60
42841;DHT22;28491;46.898;7.660;2023-04-25T09:47:25;6.40;66.50
42841;DHT22;28491;46.898;7.660;2023-04-25T09:49:51;6.20;65.90
42841;DHT22;28491;46.898;7.660;2023-04-25T09:52:19;6.00;68.60
42841;DHT22;28491;46.898;7.660;2023-04-25T09:54:46;6.00;72.60
42841;DHT22;28491;46.898;7.660;2023-04-25T09:57:23;6.10;78.10
42841;DHT22;28491;46.898;7.660;2023-04-25T09:59:50;6.20;80.80
42841;DHT22;28491;46.898;7.660;2023-04-25T10:02:21;6.20;77.20
42841;DHT22;28491;46.898;7.660;2023-04-25T10:04:52;6.20;77.60
42841;DHT22;28491;46.898;7.660;2023-04-25T10:07:23;6.30;80.40
42841;DHT22;28491;46.898;7.660;2023-04-25T10:09:55;6.40;81.40
42841;DHT22;28491;46.898;7.660;2023-04-25T10:12:22;6.50;77.80
42841;DHT22;28491;46.898;7.660;2023-04-25T10:14:47;6.50;78.00
42841;DHT22;28491;46.898;7.660;2023-04-25T10:17:14;6.60;76.60
42841;DHT22;28491;46.898;7.660;2023-04-25T10:19:39;6.60;75.50
42841;DHT22;28491;46.898;7.660;2023-04-25T10:22:13;6.60;73.30
42841;DHT22;28491;46.898;7.660;2023-04-25T10:24:40;6.70;71.70
42841;DHT22;28491;46.898;7.660;2023-04-25T10:27:06;6.80;65.60
42841;DHT22;28491;46.898;7.660;2023-04-25T10:29:32;6.90;64.70
42841;DHT22;28491;46.898;7.660;2023-04-25T10:31:58;7.00;66.40
42841;DHT22;28491;46.898;7.660;2023-04-25T10:34:37;7.10;63.20
42841;DHT22;28491;46.898;7.660;2023-04-25T10:37:03;7.10;65.70
42841;DHT22;28491;46.898;7.660;2023-04-25T10:39:29;7.10;66.30
42841;DHT22;28491;46.898;7.660;2023-04-25T10:41:58;7.30;72.20
42841;DHT22;28491;46.898;7.660;2023-04-25T10:44:27;7.60;70.00
42841;DHT22;28491;46.898;7.660;2023-04-25T10:46:58;8.00;65.40
42841;DHT22;28491;46.898;7.660;2023-04-25T10:49:32;8.30;62.80
42841;DHT22;28491;46.898;7.660;2023-04-25T10:52:25;8.70;55.30
42841;DHT22;28491;46.898;7.660;2023-04-25T10:54:58;9.10;30.00
42841;DHT22;28491;46.898;7.660;2023-04-25T10:57:31;9.40;33.30
42841;DHT22;28491;46.898;7.660;2023-04-25T11:00:22;9.70;28.20
42841;DHT22;28491;46.898;7.660;2023-04-25T11:02:58;9.70;28.60
42841;DHT22;28491;46.898;7.660;2023-04-25T11:05:33;9.50;19.10
42841;DHT22;28491;46.898;7.660;2023-04-25T11:07:59;9.50;18.40
42841;DHT22;28491;46.898;7.660;2023-04-25T11:10:29;9.30;21.90
42841;DHT22;28491;46.898;7.660;2023-04-25T11:12:56;9.00;27.10
42841;DHT22;28491;46.898;7.660;2023-04-25T11:15:22;8.90;35.20
42841;DHT22;28491;46.898;7.660;2023-04-25T11:17:47;8.80;28.80
42841;DHT22;28491;46.898;7.660;2023-04-25T11:20:13;8.90;37.90
42841;DHT22;28491;46.898;7.660;2023-04-25T11:22:41;9.10;38.30
42841;DHT22;28491;46.898;7.660;2023-04-25T11:25:10;9.30;26.40
42841;DHT22;28491;46.898;7.660;2023-04-25T11:27:52;9.70;26.50
42841;DHT22;28491;46.898;7.660;2023-04-25T11:30:20;10.40;21.70
42841;DHT22;28491;46.898;7.660;2023-04-25T11:32:46;10.80;1.00
42841;DHT22;28491;46.898;7.660;2023-04-25T11:35:12;10.90;1.00
42841;DHT22;28491;46.898;7.660;2023-04-25T11:37:42;10.80;1.00
42841;DHT22;28491;46.898;7.660;2023-04-25T11:40:09;10.80;1.00
42841;DHT22;28491;46.898;7.660;2023-04-25T11:42:39;10.60;1.00
42841;DHT22;28491;46.898;7.660;2023-04-25T11:45:05;10.60;1.00
42841;DHT22;28491;46.898;7.660;2023-04-25T11:47:32;10.70;1.00
42841;DHT22;28491;46.898;7.660;2023-04-25T11:49:59;10.80;1.00
42841;DHT22;28491;46.898;7.660;2023-04-25T11:52:38;10.70;1.00
42841;DHT22;28491;46.898;7.660;2023-04-25T11:55:09;10.40;1.00
42841;DHT22;28491;46.898;7.660;2023-04-25T11:57:37;10.20;1.00
42841;DHT22;28491;46.898;7.660;2023-04-25T12:00:17;9.90;1.00
42841;DHT22;28491;46.898;7.660;2023-04-25T12:02:45;9.90;1.00
42841;DHT22;28491;46.898;7.660;2023-04-25T12:05:12;9.70;1.00
42841;DHT22;28491;46.898;7.660;2023-04-25T12:07:38;9.40;1.00
42841;DHT22;28491;46.898;7.660;2023-04-25T12:10:11;9.30;13.70
42841;DHT22;28491;46.898;7.660;2023-04-25T12:12:38;9.20;13.70
42841;DHT22;28491;46.898;7.660;2023-04-25T12:15:10;9.10;9.30
42841;DHT22;28491;46.898;7.660;2023-04-25T12:17:37;8.90;22.40
42841;DHT22;28491;46.898;7.660;2023-04-25T12:20:08;8.80;39.60
42841;DHT22;28491;46.898;7.660;2023-04-25T12:22:34;8.50;42.60
42841;DHT22;28491;46.898;7.660;2023-04-25T12:24:59;8.30;53.80
42841;DHT22;28491;46.898;7.660;2023-04-25T12:27:25;7.90;37.40
42841;DHT22;28491;46.898;7.660;2023-04-25T12:29:54;7.40;24.50
42841;DHT22;28491;46.898;7.660;2023-04-25T12:32:19;7.00;42.70
42841;DHT22;28491;46.898;7.660;2023-04-25T12:34:45;6.80;46.90
42841;DHT22;28491;46.898;7.660;2023-04-25T12:37:11;6.40;60.20
42841;DHT22;28491;46.898;7.660;2023-04-25T12:39:37;6.40;64.30
42841;DHT22;28491;46.898;7.660;2023-04-25T12:42:02;6.20;63.50
42841;DHT22;28491;46.898;7.660;2023-04-25T12:44:28;6.20;62.40
42841;DHT22;28491;46.898;7.660;2023-04-25T12:46:54;5.90;60.20
42841;DHT22;28491;46.898;7.660;2023-04-25T12:49:20;5.70;62.50
42841;DHT22;28491;46.898;7.660;2023-04-25T12:51:46;5.60;63.70
42841;DHT22;28491;46.898;7.660;2023-04-25T12:54:12;5.80;72.70
42841;DHT22;28491;46.898;7.660;2023-04-25T12:56:37;6.10;74.70
42841;DHT22;28491;46.898;7.660;2023-04-25T12:59:03;6.40;76.00
42841;DHT22;28491;46.898;7.660;2023-04-25T13:01:29;6.60;74.80
42841;DHT22;28491;46.898;7.660;2023-04-25T13:03:54;7.00;79.80
42841;DHT22;28491;46.898;7.660;2023-04-25T13:06:22;7.30;65.90
42841;DHT22;28491;46.898;7.660;2023-04-25T13:08:47;7.70;65.00
42841;DHT22;28491;46.898;7.660;2023-04-25T13:11:13;7.80;56.50
42841;DHT22;28491;46.898;7.660;2023-04-25T13:13:40;7.90;58.00
42841;DHT22;28491;46.898;7.660;2023-04-25T13:16:06;7.90;54.60
42841;DHT22;28491;46.898;7.660;2023-04-25T13:18:33;7.80;42.50
42841;DHT22;28491;46.898;7.660;2023-04-25T13:20:58;7.70;54.00
42841;DHT22;28491;46.898;7.660;2023-04-25T13:23:28;7.80;61.70
42841;DHT22;28491;46.898;7.660;2023-04-25T13:25:54;7.80;63.80
42841;DHT22;28491;46.898;7.660;2023-04-25T13:28:20;8.00;66.60
42841;DHT22;28491;46.898;7.660;2023-04-25T13:30:46;8.20;63.30
42841;DHT22;28491;46.898;7.660;2023-04-25T13:33:13;8.30;53.20
42841;DHT22;28491;46.898;7.660;2023-04-25T13:35:40;8.30;40.70
42841;DHT22;28491;46.898;7.660;2023-04-25T13:38:05;8.60;63.60
42841;DHT22;28491;46.898;7.660;2023-04-25T13:40:31;8.70;56.10
42841;DHT22;28491;46.898;7.660;2023-04-25T13:42:57;8.90;55.40
42841;DHT22;28491;46.898;7.660;2023-04-25T13:45:24;9.10;32.50
42841;DHT22;28491;46.898;7.660;2023-04-25T13:47:49;9.30;55.60
42841;DHT22;28491;46.898;7.660;2023-04-25T13:50:15;9.30;26.00
42841;DHT22;28491;46.898;7.660;2023-04-25T13:52:41;9.40;30.90
42841;DHT22;28491;46.898;7.660;2023-04-25T13:55:07;9.70;58.00
42841;DHT22;28491;46.898;7.660;2023-04-25T13:57:34;10.00;62.20
42841;DHT22;28491;46.898;7.660;2023-04-25T14:00:00;9.90;10.40
42841;DHT22;28491;46.898;7.660;2023-04-25T14:02:31;9.80;26.00
42841;DHT22;28491;46.898;7.660;2023-04-25T14:04:56;9.70;26.30
42841;DHT22;28491;46.898;7.660;2023-04-25T14:07:22;9.80;22.00
42841;DHT22;28491;46.898;7.660;2023-04-25T14:09:47;10.00;28.50
42841;DHT22;28491;46.898;7.660;2023-04-25T14:12:13;10.20;12.00
42841;DHT22;28491;46.898;7.660;2023-04-25T14:14:38;10.20;3.10
42841;DHT22;28491;46.898;7.660;2023-04-25T14:17:04;9.90;1.00
42841;DHT22;28491;46.898;7.660;2023-04-25T14:19:30;10.00;17.50
42841;DHT22;28491;46.898;7.660;2023-04-25T14:21:56;10.10;33.10
42841;DHT22;28491;46.898;7.660;2023-04-25T14:24:21;10.20;28.80
42841;DHT22;28491;46.898;7.660;2023-04-25T14:26:47;10.00;6.30
42841;DHT22;28491;46.898;7.660;2023-04-25T14:29:12;10.00;14.80
42841;DHT22;28491;46.898;7.660;2023-04-25T14:31:39;9.90;17.40
42841;DHT22;28491;46.898;7.660;2023-04-25T14:34:05;10.00;21.60
42841;DHT22;28491;46.898;7.660;2023-04-25T14:36:31;10.00;30.70
42841;DHT22;28491;46.898;7.660;2023-04-25T14:38:57;10.00;21.30
42841;DHT22;28491;46.898;7.660;2023-04-25T14:41:23;10.00;26.30
42841;DHT22;28491;46.898;7.660;2023-04-25T14:43:50;9.90;23.60
42841;DHT22;28491;46.898;7.660;2023-04-25T14:46:15;9.90;33.50
42841;DHT22;28491;46.898;7.660;2023-04-25T14:48:42;9.80;42.80
42841;DHT22;28491;46.898;7.660;2023-04-25T14:51:07;9.80;37.40
42841;DHT22;28491;46.898;7.660;2023-04-25T14:53:33;9.70;45.00
42841;DHT22;28491;46.898;7.660;2023-04-25T14:55:59;9.70;54.00
42841;DHT22;28491;46.898;7.660;2023-04-25T14:58:24;9.70;62.90
42841;DHT22;28491;46.898;7.660;2023-04-25T15:00:50;9.50;66.00
42841;DHT22;28491;46.898;7.660;2023-04-25T15:03:16;9.10;53.20
42841;DHT22;28491;46.898;7.660;2023-04-25T15:05:42;8.70;60.20
42841;DHT22;28491;46.898;7.660;2023-04-25T15:08:08;8.50;63.30
42841;DHT22;28491;46.898;7.660;2023-04-25T15:10:34;8.20;67.40
42841;DHT22;28491;46.898;7.660;2023-04-25T15:12:59;8.10;73.80
42841;DHT22;28491;46.898;7.660;2023-04-25T15:15:25;8.00;76.20
42841;DHT22;28491;46.898;7.660;2023-04-25T15:17:52;7.90;78.50
42841;DHT22;28491;46.898;7.660;2023-04-25T15:20:19;7.70;71.50
42841;DHT22;28491;46.898;7.660;2023-04-25T15:22:44;7.80;74.60
42841;DHT22;28491;46.898;7.660;2023-04-25T15:25:11;8.00;81.70
42841;DHT22;28491;46.898;7.660;2023-04-25T15:27:38;8.00;71.70
42841;DHT22;28491;46.898;7.660;2023-04-25T15:30:07;8.20;71.30
42841;DHT22;28491;46.898;7.660;2023-04-25T15:32:34;8.50;72.80
42841;DHT22;28491;46.898;7.660;2023-04-25T15:35:03;8.60;52.90
42841;DHT22;28491;46.898;7.660;2023-04-25T15:37:28;8.60;62.80
42841;DHT22;28491;46.898;7.660;2023-04-25T15:40:13;8.70;60.50
42841;DHT22;28491;46.898;7.660;2023-04-25T15:42:44;8.70;56.80
42841;DHT22;28491;46.898;7.660;2023-04-25T15:45:13;8.60;44.10
42841;DHT22;28491;46.898;7.660;2023-04-25T15:47:39;8.50;55.50
42841;DHT22;28491;46.898;7.660;2023-04-25T15:50:07;8.50;56.80